Terminal Aerodrome Forecast
Issued by NWS

Current Version | Previous Version | Graphics & Text | Print | Product List | Glossary On
Versions: 1 2 3 4 5 6 7 8 9 10 11 12 13 14 15 16 17
104
FTUS41 KILN 170759 AAA
TAFLUK
TAF AMD
KLUK 170759Z 1708/1806 00000KT 1SM BR SCT002
      TEMPO 1708/1712 1/4SM FG VV002
     FM171200 00000KT 3SM BR FEW250
     FM171400 00000KT P6SM FEW250
     FM171600 22006KT P6SM FEW250
     FM180000 00000KT P6SM SKC=

USA.gov is the U.S. government's official web portal to all federal, state and local government web resources and services.